createdAt,value
2023-02-26T00:01:24.788Z,1021.0
2023-02-26T00:06:24.933Z,1021.0
2023-02-26T00:11:24.757Z,1021.1
2023-02-26T00:16:24.808Z,1021.1
2023-02-26T00:21:24.758Z,1021.1
2023-02-26T00:26:24.697Z,1021.1
2023-02-26T00:31:25.087Z,1021.1
2023-02-26T00:36:25.272Z,1021.1
2023-02-26T00:41:24.785Z,1021.1
2023-02-26T00:46:25.047Z,1021.2
2023-02-26T00:51:24.764Z,1021.2
2023-02-26T00:56:25.042Z,1021.3
2023-02-26T01:01:24.843Z,1021.3
2023-02-26T01:06:25.026Z,1021.3
2023-02-26T01:11:24.801Z,1021.4
2023-02-26T01:16:25.295Z,1021.5
2023-02-26T01:21:24.759Z,1021.5
2023-02-26T01:26:25.134Z,1021.5
2023-02-26T01:31:24.868Z,1021.5
2023-02-26T01:36:25.202Z,1021.4
2023-02-26T01:41:24.832Z,1021.5
2023-02-26T01:46:24.795Z,1021.6
2023-02-26T01:51:24.758Z,1021.6
2023-02-26T01:56:25.078Z,1021.6
2023-02-26T02:01:24.772Z,1021.6
2023-02-26T02:06:24.988Z,1021.7
2023-02-26T02:11:24.829Z,1021.7
2023-02-26T02:16:25.128Z,1021.7
2023-02-26T02:21:24.807Z,1021.8
2023-02-26T02:26:25.150Z,1021.8
2023-02-26T02:31:24.840Z,1021.8
2023-02-26T02:36:25.087Z,1021.9
2023-02-26T02:41:24.782Z,1021.9
2023-02-26T02:46:25.180Z,1022.2
2023-02-26T02:51:24.783Z,1022.4
2023-02-26T02:56:25.081Z,1022.2
2023-02-26T03:01:24.868Z,1022.2
2023-02-26T03:06:24.744Z,1022.2
2023-02-26T03:11:24.799Z,1022.3
2023-02-26T03:16:25.042Z,1022.3
2023-02-26T03:21:24.902Z,1022.3
2023-02-26T03:26:25.303Z,1022.4
2023-02-26T03:31:24.915Z,1022.4
2023-02-26T03:36:24.958Z,1022.5
2023-02-26T03:41:24.800Z,1022.4
2023-02-26T03:46:25.034Z,1022.4
2023-02-26T03:51:24.856Z,1022.5
2023-02-26T03:56:25.180Z,1022.5
2023-02-26T04:01:24.840Z,1022.6
2023-02-26T04:06:25.115Z,1022.6
2023-02-26T04:11:24.853Z,1022.6
2023-02-26T04:16:25.091Z,1022.6
2023-02-26T04:21:24.802Z,1022.7
2023-02-26T04:26:25.164Z,1022.8
2023-02-26T04:31:24.948Z,1022.9
2023-02-26T04:36:25.043Z,1022.9
2023-02-26T04:41:24.840Z,1023.0
2023-02-26T04:46:25.122Z,1023.0
2023-02-26T04:51:24.835Z,1023.0
2023-02-26T04:56:25.236Z,1023.1
2023-02-26T05:01:24.837Z,1023.1
2023-02-26T05:06:25.060Z,1023.1
2023-02-26T05:11:24.811Z,1023.1
2023-02-26T05:16:25.023Z,1023.2
2023-02-26T05:21:26.308Z,1023.2
2023-02-26T05:26:25.042Z,1023.3
2023-02-26T05:31:24.840Z,1023.3
2023-02-26T05:36:25.088Z,1023.4
2023-02-26T05:41:24.851Z,1023.4
2023-02-26T05:46:25.179Z,1023.4
2023-02-26T05:51:24.820Z,1023.5
2023-02-26T05:56:25.047Z,1023.5
2023-02-26T06:01:24.809Z,1023.5
2023-02-26T06:06:25.093Z,1023.5
2023-02-26T06:11:24.846Z,1023.5
2023-02-26T06:16:25.255Z,1023.6
2023-02-26T06:21:24.808Z,1023.7
2023-02-26T06:26:25.296Z,1023.7
2023-02-26T06:31:24.841Z,1023.9
2023-02-26T06:36:25.123Z,1023.9
2023-02-26T06:41:24.825Z,1024.0
2023-02-26T06:46:25.073Z,1024.1
2023-02-26T06:51:24.854Z,1024.1
2023-02-26T06:56:24.766Z,1024.2
2023-02-26T07:01:24.983Z,1024.3
2023-02-26T07:06:27.732Z,1024.2
2023-02-26T07:11:24.857Z,1024.3
2023-02-26T07:16:25.218Z,1024.4
2023-02-26T07:21:24.848Z,1024.6
2023-02-26T07:26:25.159Z,1024.6
2023-02-26T07:31:24.950Z,1024.5
2023-02-26T07:36:25.093Z,1024.7
2023-02-26T07:41:24.859Z,1024.6
2023-02-26T07:46:25.147Z,1024.7
2023-02-26T07:51:25.264Z,1024.8
2023-02-26T07:56:25.225Z,1024.9
2023-02-26T08:01:24.948Z,1024.8
2023-02-26T08:06:25.111Z,1024.9
2023-02-26T08:11:24.824Z,1024.9
2023-02-26T08:16:25.107Z,1025.0
2023-02-26T08:21:24.812Z,1025.0
2023-02-26T08:26:25.147Z,1025.1
2023-02-26T08:31:24.933Z,1025.2
2023-02-26T08:36:25.137Z,1025.3
2023-02-26T08:41:25.141Z,1025.2
2023-02-26T08:46:25.188Z,1025.4
2023-02-26T08:51:25.264Z,1025.4
2023-02-26T08:56:25.026Z,1025.5
2023-02-26T09:01:25.432Z,1025.6
2023-02-26T09:06:25.197Z,1025.7
2023-02-26T09:11:25.269Z,1025.7
2023-02-26T09:16:25.188Z,1025.7
2023-02-26T09:21:24.870Z,1025.7
2023-02-26T09:26:25.050Z,1025.7
2023-02-26T09:31:24.965Z,1025.8
2023-02-26T09:36:25.033Z,1025.9
2023-02-26T09:41:24.878Z,1025.9
2023-02-26T09:46:25.121Z,1025.9
2023-02-26T09:51:24.836Z,1026.1
2023-02-26T09:56:25.008Z,1026.1
2023-02-26T10:01:24.902Z,1026.1
2023-02-26T10:06:25.216Z,1026.2
2023-02-26T10:11:24.891Z,1026.2
2023-02-26T10:16:24.859Z,1026.3
2023-02-26T10:21:24.895Z,1026.3
2023-02-26T10:26:25.132Z,1026.3
2023-02-26T10:31:25.166Z,1026.4
2023-02-26T10:36:24.789Z,1026.5
2023-02-26T10:41:25.194Z,1026.4
2023-02-26T10:46:24.814Z,1026.5
2023-02-26T10:51:25.323Z,1026.5
2023-02-26T10:56:24.835Z,1026.6
2023-02-26T11:01:25.237Z,1026.6
2023-02-26T11:06:24.793Z,1026.7
2023-02-26T11:11:25.304Z,1026.8
2023-02-26T11:16:24.925Z,1026.8
2023-02-26T11:21:25.206Z,1026.9
2023-02-26T11:26:24.799Z,1026.9
2023-02-26T11:31:25.465Z,1026.9
2023-02-26T11:36:25.116Z,1026.9
2023-02-26T11:41:25.159Z,1027.0
2023-02-26T11:46:24.854Z,1026.9
2023-02-26T11:51:25.202Z,1027.0
2023-02-26T11:56:24.792Z,1027.0
2023-02-26T12:01:25.224Z,1027.1
2023-02-26T12:06:24.837Z,1027.1
2023-02-26T12:11:24.988Z,1027.2
2023-02-26T12:16:24.854Z,1027.1
2023-02-26T12:21:25.124Z,1027.2
2023-02-26T12:26:24.796Z,1027.2
2023-02-26T12:31:25.565Z,1027.1
2023-02-26T12:36:24.887Z,1027.2
2023-02-26T12:41:25.301Z,1027.2
2023-02-26T12:46:24.820Z,1027.2
2023-02-26T12:51:25.341Z,1027.2
2023-02-26T12:56:24.814Z,1027.2
2023-02-26T13:01:25.245Z,1027.3
2023-02-26T13:06:24.834Z,1027.3
2023-02-26T13:11:25.365Z,1027.3
2023-02-26T13:16:24.935Z,1027.3
2023-02-26T13:21:25.167Z,1027.3
2023-02-26T13:26:24.841Z,1027.2
2023-02-26T13:31:27.223Z,1027.1
2023-02-26T13:36:24.836Z,1027.2
2023-02-26T13:41:25.415Z,1027.2
2023-02-26T13:46:24.842Z,1027.3
2023-02-26T13:51:25.368Z,1027.3
2023-02-26T13:56:24.848Z,1027.3
2023-02-26T14:01:25.398Z,1027.4
2023-02-26T14:06:24.837Z,1027.4
2023-02-26T14:11:25.269Z,1027.5
2023-02-26T14:16:25.285Z,1027.6
2023-02-26T14:21:25.373Z,1027.6
2023-02-26T14:26:25.169Z,1027.5
2023-02-26T14:31:25.242Z,1027.5
2023-02-26T14:36:24.834Z,1027.5
2023-02-26T14:41:25.323Z,1027.5
2023-02-26T14:46:24.910Z,1027.5
2023-02-26T14:51:25.195Z,1027.5
2023-02-26T14:56:24.861Z,1027.5
2023-02-26T15:01:24.965Z,1027.5
2023-02-26T15:06:24.852Z,1027.6
2023-02-26T15:11:25.144Z,1027.6
2023-02-26T15:16:24.858Z,1027.6
2023-02-26T15:21:25.246Z,1027.6
2023-02-26T15:26:25.112Z,1027.6
2023-02-26T15:31:24.990Z,1027.6
2023-02-26T15:36:25.185Z,1027.7
2023-02-26T15:41:24.921Z,1027.6
2023-02-26T15:46:25.305Z,1027.6
2023-02-26T15:51:24.961Z,1027.6
2023-02-26T15:56:25.255Z,1027.6
2023-02-26T16:01:24.965Z,1027.6
2023-02-26T16:06:25.193Z,1027.7
2023-02-26T16:11:24.954Z,1027.7
2023-02-26T16:16:25.338Z,1027.7
2023-02-26T16:21:24.956Z,1027.7
2023-02-26T16:26:25.134Z,1027.7
2023-02-26T16:31:25.033Z,1027.8
2023-02-26T16:36:25.215Z,1027.8
2023-02-26T16:41:25.305Z,1027.9
2023-02-26T16:46:24.893Z,1027.8
2023-02-26T16:51:24.917Z,1027.8
2023-02-26T16:56:24.857Z,1027.8
2023-02-26T17:01:25.375Z,1027.8
2023-02-26T17:06:24.853Z,1027.8
2023-02-26T17:11:25.188Z,1027.9
2023-02-26T17:16:24.935Z,1028.0
2023-02-26T17:21:25.198Z,1028.0
2023-02-26T17:26:24.862Z,1028.0
2023-02-26T17:31:25.343Z,1028.1
2023-02-26T17:36:24.855Z,1028.2
2023-02-26T17:41:25.489Z,1028.1
2023-02-26T17:46:24.849Z,1028.1
2023-02-26T17:51:24.911Z,1028.2
2023-02-26T17:56:26.018Z,1028.2
2023-02-26T18:01:25.414Z,1028.2
2023-02-26T18:06:24.885Z,1028.3
2023-02-26T18:11:25.353Z,1028.3
2023-02-26T18:16:24.897Z,1028.3
2023-02-26T18:21:25.261Z,1028.4
2023-02-26T18:26:24.891Z,1028.5
2023-02-26T18:31:25.010Z,1028.5
2023-02-26T18:36:24.868Z,1028.5
2023-02-26T18:41:25.249Z,1028.5
2023-02-26T18:46:24.860Z,1028.6
2023-02-26T18:51:25.519Z,1028.6
2023-02-26T18:56:24.877Z,1028.5
2023-02-26T19:01:25.023Z,1028.6
2023-02-26T19:06:24.877Z,1028.6
2023-02-26T19:11:25.375Z,1028.6
2023-02-26T19:16:24.859Z,1028.6
2023-02-26T19:21:25.265Z,1028.6
2023-02-26T19:26:24.876Z,1028.6
2023-02-26T19:31:25.542Z,1028.7
2023-02-26T19:36:24.865Z,1028.7
2023-02-26T19:41:25.584Z,1028.8
2023-02-26T19:46:24.967Z,1028.8
2023-02-26T19:51:25.207Z,1028.7
2023-02-26T19:56:24.886Z,1028.7
2023-02-26T20:01:24.979Z,1028.7
2023-02-26T20:06:24.885Z,1028.7
2023-02-26T20:11:25.250Z,1028.8
2023-02-26T20:16:24.990Z,1028.8
2023-02-26T20:21:25.194Z,1028.7
2023-02-26T20:26:24.903Z,1028.8
2023-02-26T20:31:25.523Z,1028.9
2023-02-26T20:36:24.904Z,1029.0
2023-02-26T20:41:25.272Z,1029.0
2023-02-26T20:46:24.965Z,1028.9
2023-02-26T20:51:25.542Z,1029.0
2023-02-26T20:56:24.908Z,1029.0
2023-02-26T21:01:25.318Z,1029.0
2023-02-26T21:06:24.897Z,1029.1
2023-02-26T21:11:25.231Z,1029.1
2023-02-26T21:16:25.004Z,1029.1
2023-02-26T21:21:24.983Z,1029.1
2023-02-26T21:26:24.905Z,1029.1
2023-02-26T21:31:25.040Z,1029.1
2023-02-26T21:36:24.919Z,1029.1
2023-02-26T21:41:25.383Z,1029.1
2023-02-26T21:46:24.893Z,1029.1
2023-02-26T21:51:25.468Z,1029.1
2023-02-26T21:56:24.910Z,1029.1
2023-02-26T22:01:25.453Z,1029.0
2023-02-26T22:06:24.907Z,1029.1
2023-02-26T22:11:25.317Z,1029.3
2023-02-26T22:16:24.938Z,1029.3
2023-02-26T22:21:25.319Z,1029.3
2023-02-26T22:26:24.908Z,1029.3
2023-02-26T22:31:25.453Z,1029.3
2023-02-26T22:36:24.916Z,1029.3
2023-02-26T22:41:25.004Z,1029.2
2023-02-26T22:46:24.936Z,1029.2
2023-02-26T22:51:25.447Z,1029.2
2023-02-26T22:56:24.925Z,1029.3
2023-02-26T23:01:25.065Z,1029.4
2023-02-26T23:06:24.925Z,1029.3
2023-02-26T23:11:25.496Z,1029.5
2023-02-26T23:16:24.934Z,1029.6
2023-02-26T23:21:25.319Z,1029.6
2023-02-26T23:26:24.937Z,1029.7
2023-02-26T23:31:25.787Z,1029.6
2023-02-26T23:36:24.922Z,1029.5
2023-02-26T23:41:25.330Z,1029.4
2023-02-26T23:46:24.996Z,1029.4
2023-02-26T23:56:24.915Z,1029.5
